sensor_id;sensor_type;location;lat;lon;timestamp;pressure;altitude;pressure_sealevel;temperature;humidity
85918;BME280;76456;49.310;8.632;2024-03-02T00:00:02;99394.88;;;5.04;89.38
85918;BME280;76456;49.310;8.632;2024-03-02T00:02:40;99370.22;;;5.03;89.75
85918;BME280;76456;49.310;8.632;2024-03-02T00:05:06;99369.19;;;5.06;89.21
85918;BME280;76456;49.310;8.632;2024-03-02T00:07:31;99368.81;;;5.12;89.42
85918;BME280;76456;49.310;8.632;2024-03-02T00:09:57;99378.09;;;5.13;89.76
85918;BME280;76456;49.310;8.632;2024-03-02T00:12:22;99382.81;;;5.19;89.16
85918;BME280;76456;49.310;8.632;2024-03-02T00:14:47;99369.00;;;5.09;89.53
85918;BME280;76456;49.310;8.632;2024-03-02T00:17:17;99376.41;;;5.39;89.29
85918;BME280;76456;49.310;8.632;2024-03-02T00:19:46;99354.41;;;5.23;88.71
85918;BME280;76456;49.310;8.632;2024-03-02T00:22:11;99340.97;;;5.20;89.34
85918;BME280;76456;49.310;8.632;2024-03-02T00:24:37;99353.75;;;5.20;89.02
85918;BME280;76456;49.310;8.632;2024-03-02T00:27:04;99362.19;;;5.34;88.97
85918;BME280;76456;49.310;8.632;2024-03-02T00:29:30;99367.47;;;5.31;88.59
85918;BME280;76456;49.310;8.632;2024-03-02T00:31:57;99366.75;;;5.17;89.10
85918;BME280;76456;49.310;8.632;2024-03-02T00:34:23;99367.28;;;5.22;89.20
85918;BME280;76456;49.310;8.632;2024-03-02T00:36:48;99354.78;;;5.17;88.92
85918;BME280;76456;49.310;8.632;2024-03-02T00:39:17;99336.94;;;5.03;89.21
85918;BME280;76456;49.310;8.632;2024-03-02T00:41:43;99364.00;;;5.20;88.59
85918;BME280;76456;49.310;8.632;2024-03-02T00:44:15;99372.78;;;5.16;89.13
85918;BME280;76456;49.310;8.632;2024-03-02T00:46:42;99360.72;;;5.18;88.30
85918;BME280;76456;49.310;8.632;2024-03-02T00:49:18;99376.81;;;5.32;88.46
85918;BME280;76456;49.310;8.632;2024-03-02T00:51:46;99373.66;;;5.29;89.25
85918;BME280;76456;49.310;8.632;2024-03-02T00:54:13;99363.28;;;5.18;88.60
85918;BME280;76456;49.310;8.632;2024-03-02T00:56:41;99373.50;;;5.05;89.53
85918;BME280;76456;49.310;8.632;2024-03-02T00:59:06;99379.63;;;5.03;90.56
85918;BME280;76456;49.310;8.632;2024-03-02T01:01:32;99372.25;;;4.98;90.24
85918;BME280;76456;49.310;8.632;2024-03-02T01:03:57;99372.34;;;4.97;90.22
85918;BME280;76456;49.310;8.632;2024-03-02T01:06:23;99344.13;;;4.71;90.73
85918;BME280;76456;49.310;8.632;2024-03-02T01:08:48;99377.25;;;4.87;91.36
85918;BME280;76456;49.310;8.632;2024-03-02T01:11:16;99363.63;;;4.86;91.31
85918;BME280;76456;49.310;8.632;2024-03-02T01:13:41;99367.75;;;4.62;90.63
85918;BME280;76456;49.310;8.632;2024-03-02T01:16:07;99385.56;;;4.64;91.65
85918;BME280;76456;49.310;8.632;2024-03-02T01:18:32;99393.22;;;4.64;92.13
85918;BME280;76456;49.310;8.632;2024-03-02T01:20:57;99394.94;;;4.63;91.59
85918;BME280;76456;49.310;8.632;2024-03-02T01:23:23;99381.59;;;4.31;91.69
85918;BME280;76456;49.310;8.632;2024-03-02T01:25:49;99400.03;;;4.36;91.36
85918;BME280;76456;49.310;8.632;2024-03-02T01:28:14;99399.94;;;4.38;91.49
85918;BME280;76456;49.310;8.632;2024-03-02T01:30:40;99387.81;;;4.27;91.72
85918;BME280;76456;49.310;8.632;2024-03-02T01:33:05;99373.31;;;4.13;92.94
85918;BME280;76456;49.310;8.632;2024-03-02T01:35:32;99387.91;;;4.26;92.94
85918;BME280;76456;49.310;8.632;2024-03-02T01:37:57;99358.00;;;4.13;92.81
85918;BME280;76456;49.310;8.632;2024-03-02T01:40:23;99350.25;;;4.15;92.65
85918;BME280;76456;49.310;8.632;2024-03-02T01:42:52;99365.81;;;4.25;92.42
85918;BME280;76456;49.310;8.632;2024-03-02T01:45:18;99378.13;;;4.32;92.08
85918;BME280;76456;49.310;8.632;2024-03-02T01:47:43;99359.09;;;4.24;91.67
85918;BME280;76456;49.310;8.632;2024-03-02T01:50:11;99372.84;;;4.35;91.71
85918;BME280;76456;49.310;8.632;2024-03-02T01:52:36;99368.97;;;4.42;92.53
85918;BME280;76456;49.310;8.632;2024-03-02T01:55:02;99372.78;;;4.49;92.07
85918;BME280;76456;49.310;8.632;2024-03-02T01:57:29;99348.50;;;4.30;92.11
85918;BME280;76456;49.310;8.632;2024-03-02T01:59:54;99361.88;;;4.47;92.01
85918;BME280;76456;49.310;8.632;2024-03-02T02:02:20;99353.41;;;4.60;92.23
85918;BME280;76456;49.310;8.632;2024-03-02T02:04:45;99354.44;;;4.57;91.58
85918;BME280;76456;49.310;8.632;2024-03-02T02:07:11;99350.31;;;4.54;91.32
85918;BME280;76456;49.310;8.632;2024-03-02T02:09:36;99341.81;;;4.41;91.18
85918;BME280;76456;49.310;8.632;2024-03-02T02:12:02;99362.50;;;4.37;91.07
85918;BME280;76456;49.310;8.632;2024-03-02T02:14:29;99351.38;;;4.38;91.20
85918;BME280;76456;49.310;8.632;2024-03-02T02:16:54;99345.72;;;4.47;91.18
85918;BME280;76456;49.310;8.632;2024-03-02T02:19:20;99341.22;;;4.50;90.83
85918;BME280;76456;49.310;8.632;2024-03-02T02:21:45;99343.38;;;4.57;91.00
85918;BME280;76456;49.310;8.632;2024-03-02T02:24:10;99339.19;;;4.56;90.85
85918;BME280;76456;49.310;8.632;2024-03-02T02:26:38;99345.72;;;4.60;90.49
85918;BME280;76456;49.310;8.632;2024-03-02T02:29:03;99348.69;;;4.53;90.56
85918;BME280;76456;49.310;8.632;2024-03-02T02:31:39;99343.97;;;4.47;91.29
85918;BME280;76456;49.310;8.632;2024-03-02T02:34:05;99341.13;;;4.52;90.43
85918;BME280;76456;49.310;8.632;2024-03-02T02:36:32;99318.00;;;4.27;91.19
85918;BME280;76456;49.310;8.632;2024-03-02T02:38:59;99310.16;;;4.30;90.95
85918;BME280;76456;49.310;8.632;2024-03-02T02:41:28;99329.78;;;4.29;91.61
85918;BME280;76456;49.310;8.632;2024-03-02T02:43:53;99333.16;;;4.57;91.30
85918;BME280;76456;49.310;8.632;2024-03-02T02:46:19;99313.91;;;4.51;90.81
85918;BME280;76456;49.310;8.632;2024-03-02T02:48:44;99327.66;;;4.63;90.99
85918;BME280;76456;49.310;8.632;2024-03-02T02:51:09;99299.88;;;4.44;91.11
85918;BME280;76456;49.310;8.632;2024-03-02T02:53:34;99311.16;;;4.54;90.80
85918;BME280;76456;49.310;8.632;2024-03-02T02:56:00;99321.06;;;4.46;90.61
85918;BME280;76456;49.310;8.632;2024-03-02T02:58:26;99325.25;;;4.47;91.25
85918;BME280;76456;49.310;8.632;2024-03-02T03:00:51;99321.06;;;4.46;90.71
85918;BME280;76456;49.310;8.632;2024-03-02T03:03:16;99311.22;;;4.40;90.79
85918;BME280;76456;49.310;8.632;2024-03-02T03:05:42;99319.81;;;4.39;90.98
85918;BME280;76456;49.310;8.632;2024-03-02T03:08:07;99313.47;;;4.44;91.48
85918;BME280;76456;49.310;8.632;2024-03-02T03:10:33;99308.22;;;4.33;90.99
85918;BME280;76456;49.310;8.632;2024-03-02T03:12:58;99321.88;;;4.46;91.61
85918;BME280;76456;49.310;8.632;2024-03-02T03:15:23;99301.81;;;4.40;91.74
85918;BME280;76456;49.310;8.632;2024-03-02T03:17:49;99315.56;;;4.52;91.70
85918;BME280;76456;49.310;8.632;2024-03-02T03:20:15;99299.41;;;4.51;91.36
85918;BME280;76456;49.310;8.632;2024-03-02T03:22:41;99314.66;;;4.53;91.25
85918;BME280;76456;49.310;8.632;2024-03-02T03:25:06;99302.88;;;4.50;91.59
85918;BME280;76456;49.310;8.632;2024-03-02T03:27:34;99291.63;;;4.53;91.14
85918;BME280;76456;49.310;8.632;2024-03-02T03:30:00;99293.81;;;4.59;91.52
85918;BME280;76456;49.310;8.632;2024-03-02T03:32:25;99306.06;;;4.67;90.67
85918;BME280;76456;49.310;8.632;2024-03-02T03:34:50;99287.13;;;4.57;90.76
85918;BME280;76456;49.310;8.632;2024-03-02T03:37:16;99306.91;;;4.67;90.54
85918;BME280;76456;49.310;8.632;2024-03-02T03:39:41;99295.75;;;4.68;90.16
85918;BME280;76456;49.310;8.632;2024-03-02T03:42:06;99248.59;;;4.60;89.60
85918;BME280;76456;49.310;8.632;2024-03-02T03:44:32;99278.19;;;4.76;89.60
85918;BME280;76456;49.310;8.632;2024-03-02T03:46:58;99284.44;;;4.85;89.25
85918;BME280;76456;49.310;8.632;2024-03-02T03:49:23;99300.94;;;4.93;88.61
85918;BME280;76456;49.310;8.632;2024-03-02T03:51:49;99302.75;;;4.91;89.39
85918;BME280;76456;49.310;8.632;2024-03-02T03:54:14;99298.03;;;4.85;89.30
85918;BME280;76456;49.310;8.632;2024-03-02T03:56:40;99284.81;;;4.79;89.16
85918;BME280;76456;49.310;8.632;2024-03-02T03:59:05;99289.13;;;4.78;89.04
85918;BME280;76456;49.310;8.632;2024-03-02T04:01:30;99296.63;;;4.81;89.56
85918;BME280;76456;49.310;8.632;2024-03-02T04:03:57;99286.56;;;4.78;89.26
85918;BME280;76456;49.310;8.632;2024-03-02T04:06:22;99309.91;;;4.86;89.09
85918;BME280;76456;49.310;8.632;2024-03-02T04:08:47;99296.91;;;4.77;89.20
85918;BME280;76456;49.310;8.632;2024-03-02T04:11:13;99289.44;;;4.86;88.57
85918;BME280;76456;49.310;8.632;2024-03-02T04:13:38;99298.91;;;5.11;88.48
85918;BME280;76456;49.310;8.632;2024-03-02T04:16:04;99297.38;;;5.21;87.83
85918;BME280;76456;49.310;8.632;2024-03-02T04:18:30;99308.19;;;5.25;87.65
85918;BME280;76456;49.310;8.632;2024-03-02T04:20:57;99303.00;;;5.26;87.27
85918;BME280;76456;49.310;8.632;2024-03-02T04:23:24;99307.69;;;5.45;86.10
85918;BME280;76456;49.310;8.632;2024-03-02T04:25:49;99309.13;;;5.49;85.53
85918;BME280;76456;49.310;8.632;2024-03-02T04:28:15;99311.59;;;5.51;85.97
85918;BME280;76456;49.310;8.632;2024-03-02T04:30:40;99307.28;;;5.51;85.17
85918;BME280;76456;49.310;8.632;2024-03-02T04:33:06;99310.75;;;5.50;86.02
85918;BME280;76456;49.310;8.632;2024-03-02T04:35:35;99316.81;;;5.49;86.37
85918;BME280;76456;49.310;8.632;2024-03-02T04:38:00;99296.97;;;5.40;85.71
85918;BME280;76456;49.310;8.632;2024-03-02T04:40:25;99316.94;;;5.48;85.40
85918;BME280;76456;49.310;8.632;2024-03-02T04:42:51;99313.97;;;5.41;85.62
85918;BME280;76456;49.310;8.632;2024-03-02T04:45:16;99312.22;;;5.29;86.21
85918;BME280;76456;49.310;8.632;2024-03-02T04:47:42;99284.88;;;5.04;86.24
85918;BME280;76456;49.310;8.632;2024-03-02T04:50:07;99298.56;;;5.03;87.28
85918;BME280;76456;49.310;8.632;2024-03-02T04:52:33;99278.63;;;4.83;87.32
85918;BME280;76456;49.310;8.632;2024-03-02T04:54:58;99299.47;;;4.89;87.68
85918;BME280;76456;49.310;8.632;2024-03-02T04:57:42;99303.16;;;4.85;87.61
85918;BME280;76456;49.310;8.632;2024-03-02T05:00:08;99323.81;;;4.82;88.30
85918;BME280;76456;49.310;8.632;2024-03-02T05:02:34;99304.81;;;4.60;88.13
85918;BME280;76456;49.310;8.632;2024-03-02T05:05:00;99339.53;;;4.64;88.84
85918;BME280;76456;49.310;8.632;2024-03-02T05:07:26;99319.81;;;4.39;88.83
85918;BME280;76456;49.310;8.632;2024-03-02T05:09:51;99326.88;;;4.21;89.17
85918;BME280;76456;49.310;8.632;2024-03-02T05:12:16;99347.56;;;4.31;89.87
85918;BME280;76456;49.310;8.632;2024-03-02T05:15:01;99330.56;;;4.03;89.94
85918;BME280;76456;49.310;8.632;2024-03-02T05:17:27;99337.16;;;3.93;90.16
85918;BME280;76456;49.310;8.632;2024-03-02T05:19:52;99358.38;;;4.07;90.72
85918;BME280;76456;49.310;8.632;2024-03-02T05:22:17;99338.53;;;3.84;90.40
85918;BME280;76456;49.310;8.632;2024-03-02T05:24:43;99357.66;;;3.91;90.46
85918;BME280;76456;49.310;8.632;2024-03-02T05:27:08;99343.63;;;3.84;91.39
85918;BME280;76456;49.310;8.632;2024-03-02T05:29:33;99353.03;;;3.98;90.94
85918;BME280;76456;49.310;8.632;2024-03-02T05:31:59;99342.72;;;3.85;90.80
85918;BME280;76456;49.310;8.632;2024-03-02T05:34:24;99329.50;;;3.79;91.55
85918;BME280;76456;49.310;8.632;2024-03-02T05:36:49;99353.03;;;3.84;90.60
85918;BME280;76456;49.310;8.632;2024-03-02T05:39:15;99362.50;;;3.96;91.94
85918;BME280;76456;49.310;8.632;2024-03-02T05:41:40;99360.50;;;3.87;91.48
85918;BME280;76456;49.310;8.632;2024-03-02T05:44:06;99367.63;;;3.82;91.36
85918;BME280;76456;49.310;8.632;2024-03-02T05:46:31;99365.25;;;3.79;91.13
85918;BME280;76456;49.310;8.632;2024-03-02T05:48:58;99348.75;;;3.56;91.73
85918;BME280;76456;49.310;8.632;2024-03-02T05:51:23;99349.13;;;3.64;91.50
85918;BME280;76456;49.310;8.632;2024-03-02T05:53:48;99338.00;;;3.65;91.55
85918;BME280;76456;49.310;8.632;2024-03-02T05:56:13;99348.56;;;3.59;92.03
85918;BME280;76456;49.310;8.632;2024-03-02T05:58:40;99329.22;;;3.55;92.34
85918;BME280;76456;49.310;8.632;2024-03-02T06:01:24;99336.09;;;3.83;90.97
85918;BME280;76456;49.310;8.632;2024-03-02T06:03:55;99344.72;;;3.94;91.16
85918;BME280;76456;49.310;8.632;2024-03-02T06:06:20;99343.03;;;4.07;90.09
85918;BME280;76456;49.310;8.632;2024-03-02T06:08:46;99343.94;;;4.21;89.79
85918;BME280;76456;49.310;8.632;2024-03-02T06:11:11;99358.13;;;4.12;90.15
85918;BME280;76456;49.310;8.632;2024-03-02T06:13:36;99340.63;;;3.92;90.75
85918;BME280;76456;49.310;8.632;2024-03-02T06:16:02;99338.06;;;3.78;91.01
85918;BME280;76456;49.310;8.632;2024-03-02T06:18:27;99370.28;;;3.94;90.42
85918;BME280;76456;49.310;8.632;2024-03-02T06:20:53;99366.59;;;3.98;90.50
85918;BME280;76456;49.310;8.632;2024-03-02T06:23:18;99342.72;;;3.85;90.54
85918;BME280;76456;49.310;8.632;2024-03-02T06:25:43;99358.94;;;3.98;90.83
85918;BME280;76456;49.310;8.632;2024-03-02T06:28:09;99370.97;;;3.96;90.37
85918;BME280;76456;49.310;8.632;2024-03-02T06:30:34;99360.44;;;3.88;90.65
85918;BME280;76456;49.310;8.632;2024-03-02T06:33:00;99352.03;;;3.86;90.32
85918;BME280;76456;49.310;8.632;2024-03-02T06:35:25;99361.31;;;4.01;90.71
85918;BME280;76456;49.310;8.632;2024-03-02T06:37:51;99366.56;;;4.12;89.68
85918;BME280;76456;49.310;8.632;2024-03-02T06:40:16;99363.59;;;4.06;90.09
85918;BME280;76456;49.310;8.632;2024-03-02T06:42:42;99335.75;;;4.16;88.50
85918;BME280;76456;49.310;8.632;2024-03-02T06:45:07;99371.72;;;4.53;88.44
85918;BME280;76456;49.310;8.632;2024-03-02T06:47:33;99350.94;;;4.31;88.30
85918;BME280;76456;49.310;8.632;2024-03-02T06:49:58;99376.94;;;4.38;88.67
85918;BME280;76456;49.310;8.632;2024-03-02T06:52:24;99357.34;;;4.24;88.72
85918;BME280;76456;49.310;8.632;2024-03-02T06:54:49;99385.63;;;4.35;88.78
85918;BME280;76456;49.310;8.632;2024-03-02T06:57:15;99355.94;;;4.47;88.03
85918;BME280;76456;49.310;8.632;2024-03-02T06:59:42;99361.81;;;4.62;87.47
85918;BME280;76456;49.310;8.632;2024-03-02T07:02:07;99354.56;;;4.68;87.41
85918;BME280;76456;49.310;8.632;2024-03-02T07:04:34;99353.84;;;4.66;87.41
85918;BME280;76456;49.310;8.632;2024-03-02T07:06:59;99375.56;;;4.73;86.51
85918;BME280;76456;49.310;8.632;2024-03-02T07:09:24;99375.19;;;4.92;85.78
85918;BME280;76456;49.310;8.632;2024-03-02T07:11:51;99356.34;;;4.80;86.04
85918;BME280;76456;49.310;8.632;2024-03-02T07:14:16;99384.53;;;4.93;85.74
85918;BME280;76456;49.310;8.632;2024-03-02T07:16:41;99384.09;;;4.86;86.00
85918;BME280;76456;49.310;8.632;2024-03-02T07:19:08;99382.34;;;4.87;86.78
85918;BME280;76456;49.310;8.632;2024-03-02T07:21:33;99371.81;;;4.91;86.46
85918;BME280;76456;49.310;8.632;2024-03-02T07:23:59;99366.72;;;4.91;85.89
85918;BME280;76456;49.310;8.632;2024-03-02T07:26:25;99385.66;;;5.02;85.78
85918;BME280;76456;49.310;8.632;2024-03-02T07:28:51;99353.06;;;4.78;86.05
85918;BME280;76456;49.310;8.632;2024-03-02T07:31:16;99369.59;;;5.00;86.07
85918;BME280;76456;49.310;8.632;2024-03-02T07:33:45;99386.59;;;5.01;86.32
85918;BME280;76456;49.310;8.632;2024-03-02T07:36:11;99380.84;;;4.97;85.79
85918;BME280;76456;49.310;8.632;2024-03-02T07:38:37;99393.06;;;5.19;85.54
85918;BME280;76456;49.310;8.632;2024-03-02T07:41:02;99381.81;;;5.21;85.52
85918;BME280;76456;49.310;8.632;2024-03-02T07:43:29;99392.91;;;5.34;85.40
85918;BME280;76456;49.310;8.632;2024-03-02T07:45:55;99385.94;;;5.49;83.82
85918;BME280;76456;49.310;8.632;2024-03-02T07:48:21;99393.03;;;5.71;83.62
85918;BME280;76456;49.310;8.632;2024-03-02T07:50:46;99392.81;;;5.74;83.02
85918;BME280;76456;49.310;8.632;2024-03-02T07:53:11;99391.78;;;5.89;82.68
85918;BME280;76456;49.310;8.632;2024-03-02T07:55:37;99404.16;;;6.08;82.81
85918;BME280;76456;49.310;8.632;2024-03-02T07:58:02;99385.63;;;6.17;81.01
85918;BME280;76456;49.310;8.632;2024-03-02T08:00:28;99390.97;;;6.38;81.04
85918;BME280;76456;49.310;8.632;2024-03-02T08:02:54;99386.97;;;6.46;79.74
85918;BME280;76456;49.310;8.632;2024-03-02T08:05:19;99404.31;;;6.67;79.76
85918;BME280;76456;49.310;8.632;2024-03-02T08:07:45;99397.97;;;6.83;79.86
85918;BME280;76456;49.310;8.632;2024-03-02T08:10:11;99393.03;;;6.93;78.88
85918;BME280;76456;49.310;8.632;2024-03-02T08:12:37;99403.59;;;7.12;78.59
85918;BME280;76456;49.310;8.632;2024-03-02T08:15:03;99375.22;;;7.14;77.35
85918;BME280;76456;49.310;8.632;2024-03-02T08:17:29;99379.63;;;7.35;76.80
85918;BME280;76456;49.310;8.632;2024-03-02T08:19:54;99394.06;;;7.71;75.73
85918;BME280;76456;49.310;8.632;2024-03-02T08:22:20;99405.25;;;8.04;75.59
85918;BME280;76456;49.310;8.632;2024-03-02T08:24:45;99397.06;;;8.43;73.04
85918;BME280;76456;49.310;8.632;2024-03-02T08:27:11;99396.34;;;8.63;72.26
85918;BME280;76456;49.310;8.632;2024-03-02T08:29:37;99381.94;;;8.61;71.63
85918;BME280;76456;49.310;8.632;2024-03-02T08:32:02;99382.53;;;8.65;71.88
85918;BME280;76456;49.310;8.632;2024-03-02T08:34:28;99375.31;;;8.58;71.19
85918;BME280;76456;49.310;8.632;2024-03-02T08:36:53;99379.28;;;8.94;70.72
85918;BME280;76456;49.310;8.632;2024-03-02T08:39:19;99399.66;;;9.18;69.64
85918;BME280;76456;49.310;8.632;2024-03-02T08:41:45;99393.09;;;9.14;68.76
85918;BME280;76456;49.310;8.632;2024-03-02T08:44:11;99392.53;;;9.11;68.84
85918;BME280;76456;49.310;8.632;2024-03-02T08:46:37;99381.22;;;9.02;69.64
85918;BME280;76456;49.310;8.632;2024-03-02T08:49:03;99387.09;;;8.93;69.10
85918;BME280;76456;49.310;8.632;2024-03-02T08:51:29;99381.31;;;8.80;68.85
85918;BME280;76456;49.310;8.632;2024-03-02T08:53:54;99377.09;;;8.79;69.82
85918;BME280;76456;49.310;8.632;2024-03-02T08:56:20;99398.28;;;8.82;69.68
85918;BME280;76456;49.310;8.632;2024-03-02T08:58:46;99384.69;;;8.80;68.94
85918;BME280;76456;49.310;8.632;2024-03-02T09:01:12;99383.75;;;8.81;68.69
85918;BME280;76456;49.310;8.632;2024-03-02T09:03:37;99373.69;;;8.89;68.52
85918;BME280;76456;49.310;8.632;2024-03-02T09:06:03;99367.34;;;8.93;68.59
85918;BME280;76456;49.310;8.632;2024-03-02T09:08:28;99381.31;;;9.12;67.59
85918;BME280;76456;49.310;8.632;2024-03-02T09:10:55;99379.22;;;9.26;67.30
85918;BME280;76456;49.310;8.632;2024-03-02T09:13:21;99365.63;;;9.03;68.07
85918;BME280;76456;49.310;8.632;2024-03-02T09:15:47;99388.47;;;9.29;67.01
85918;BME280;76456;49.310;8.632;2024-03-02T09:18:12;99382.53;;;9.38;67.81
85918;BME280;76456;49.310;8.632;2024-03-02T09:20:38;99383.69;;;9.45;67.13
85918;BME280;76456;49.310;8.632;2024-03-02T09:23:03;99383.94;;;9.42;67.02
85918;BME280;76456;49.310;8.632;2024-03-02T09:25:29;99382.00;;;9.34;67.55
85918;BME280;76456;49.310;8.632;2024-03-02T09:27:54;99360.75;;;9.42;66.94
85918;BME280;76456;49.310;8.632;2024-03-02T09:30:19;99375.22;;;9.54;66.96
85918;BME280;76456;49.310;8.632;2024-03-02T09:32:45;99376.25;;;9.52;66.60
85918;BME280;76456;49.310;8.632;2024-03-02T09:35:10;99359.13;;;9.41;66.41
85918;BME280;76456;49.310;8.632;2024-03-02T09:37:37;99386.81;;;9.69;66.13
85918;BME280;76456;49.310;8.632;2024-03-02T09:40:03;99391.09;;;9.90;66.39
85918;BME280;76456;49.310;8.632;2024-03-02T09:42:29;99388.88;;;10.06;65.95
85918;BME280;76456;49.310;8.632;2024-03-02T09:44:54;99381.78;;;10.08;64.94
85918;BME280;76456;49.310;8.632;2024-03-02T09:47:20;99382.72;;;9.97;64.94
85918;BME280;76456;49.310;8.632;2024-03-02T09:49:45;99387.47;;;10.02;65.55
85918;BME280;76456;49.310;8.632;2024-03-02T09:52:11;99377.09;;;10.13;64.27
85918;BME280;76456;49.310;8.632;2024-03-02T09:54:37;99379.50;;;10.14;nan
85918;BME280;76456;49.310;8.632;2024-03-02T09:57:02;99383.50;;;10.18;64.36
85918;BME280;76456;49.310;8.632;2024-03-02T09:59:28;99363.28;;;10.23;64.71
85918;BME280;76456;49.310;8.632;2024-03-02T10:04:27;99361.84;;;10.50;63.98
85918;BME280;76456;49.310;8.632;2024-03-02T10:07:15;99374.09;;;10.67;63.29
85918;BME280;76456;49.310;8.632;2024-03-02T10:09:42;99366.75;;;10.72;62.21
85918;BME280;76456;49.310;8.632;2024-03-02T10:12:09;99365.13;;;10.52;63.34
85918;BME280;76456;49.310;8.632;2024-03-02T10:14:35;99357.81;;;10.76;62.81
85918;BME280;76456;49.310;8.632;2024-03-02T10:17:21;99360.66;;;10.92;61.78
85918;BME280;76456;49.310;8.632;2024-03-02T10:19:46;99359.41;;;10.96;61.87
85918;BME280;76456;49.310;8.632;2024-03-02T10:22:13;99361.72;;;11.19;61.98
85918;BME280;76456;49.310;8.632;2024-03-02T10:24:43;99354.78;;;11.29;61.60
85918;BME280;76456;49.310;8.632;2024-03-02T10:27:22;99354.31;;;11.43;60.74
85918;BME280;76456;49.310;8.632;2024-03-02T10:29:48;99359.94;;;11.19;60.71
85918;BME280;76456;49.310;8.632;2024-03-02T10:32:15;99361.19;;;11.25;60.72
85918;BME280;76456;49.310;8.632;2024-03-02T10:34:41;99362.81;;;11.16;61.32
85918;BME280;76456;49.310;8.632;2024-03-02T10:37:07;99342.50;;;11.40;61.48
85918;BME280;76456;49.310;8.632;2024-03-02T10:39:34;99358.53;;;11.44;60.27
85918;BME280;76456;49.310;8.632;2024-03-02T10:42:05;99347.97;;;11.28;60.27
85918;BME280;76456;49.310;8.632;2024-03-02T10:44:31;99350.38;;;11.39;60.06
85918;BME280;76456;49.310;8.632;2024-03-02T10:47:00;99344.59;;;11.74;59.39
85918;BME280;76456;49.310;8.632;2024-03-02T10:49:27;99347.19;;;11.74;58.89
85918;BME280;76456;49.310;8.632;2024-03-02T10:51:54;99348.94;;;11.73;58.81
85918;BME280;76456;49.310;8.632;2024-03-02T10:54:19;99335.66;;;13.29;53.99
85918;BME280;76456;49.310;8.632;2024-03-02T10:56:51;99327.28;;;14.86;50.72
85918;BME280;76456;49.310;8.632;2024-03-02T10:59:32;99336.53;;;15.04;48.73
85918;BME280;76456;49.310;8.632;2024-03-02T11:02:00;99310.28;;;15.63;47.17
85918;BME280;76456;49.310;8.632;2024-03-02T11:04:27;99328.53;;;16.02;45.39
85918;BME280;76456;49.310;8.632;2024-03-02T11:06:58;99316.72;;;15.83;45.92
85918;BME280;76456;49.310;8.632;2024-03-02T11:09:27;99330.78;;;16.35;44.08
85918;BME280;76456;49.310;8.632;2024-03-02T11:12:09;99307.84;;;15.45;46.50
85918;BME280;76456;49.310;8.632;2024-03-02T11:14:37;99314.94;;;15.83;45.92
85918;BME280;76456;49.310;8.632;2024-03-02T11:17:06;99320.59;;;15.95;45.98
85918;BME280;76456;49.310;8.632;2024-03-02T11:19:32;99322.00;;;17.05;43.51
85918;BME280;76456;49.310;8.632;2024-03-02T11:21:59;99293.81;;;16.63;44.38
85918;BME280;76456;49.310;8.632;2024-03-02T11:26:58;99305.25;;;18.53;40.21
85918;BME280;76456;49.310;8.632;2024-03-02T11:32:01;99285.63;;;15.89;44.58
85918;BME280;76456;49.310;8.632;2024-03-02T11:34:31;99286.50;;;17.33;43.45
85918;BME280;76456;49.310;8.632;2024-03-02T11:36:57;99280.31;;;17.64;41.02
85918;BME280;76456;49.310;8.632;2024-03-02T11:39:25;99285.56;;;16.51;43.34
85918;BME280;76456;49.310;8.632;2024-03-02T11:41:50;99273.72;;;15.95;44.78
85918;BME280;76456;49.310;8.632;2024-03-02T11:44:15;99273.53;;;16.50;43.96
85918;BME280;76456;49.310;8.632;2024-03-02T11:46:41;99251.94;;;15.41;46.67
85918;BME280;76456;49.310;8.632;2024-03-02T11:49:06;99248.25;;;15.74;45.00
85918;BME280;76456;49.310;8.632;2024-03-02T11:51:34;99260.16;;;16.76;43.61
85918;BME280;76456;49.310;8.632;2024-03-02T11:54:00;99260.38;;;16.89;42.49
85918;BME280;76456;49.310;8.632;2024-03-02T11:56:28;99258.88;;;17.24;41.40
85918;BME280;76456;49.310;8.632;2024-03-02T11:58:55;99260.19;;;16.22;43.54
85918;BME280;76456;49.310;8.632;2024-03-02T12:01:22;99253.34;;;15.98;44.17
85918;BME280;76456;49.310;8.632;2024-03-02T12:03:48;99243.09;;;16.88;42.24
85918;BME280;76456;49.310;8.632;2024-03-02T12:06:14;99241.25;;;17.70;41.20
85918;BME280;76456;49.310;8.632;2024-03-02T12:08:40;99237.16;;;16.57;42.32
85918;BME280;76456;49.310;8.632;2024-03-02T12:11:05;99235.94;;;17.64;41.11
85918;BME280;76456;49.310;8.632;2024-03-02T12:13:31;99231.16;;;16.94;41.79
85918;BME280;76456;49.310;8.632;2024-03-02T12:15:58;99219.69;;;16.65;42.40
85918;BME280;76456;49.310;8.632;2024-03-02T12:18:24;99235.53;;;16.78;41.93
85918;BME280;76456;49.310;8.632;2024-03-02T12:20:50;99233.50;;;18.13;41.23
85918;BME280;76456;49.310;8.632;2024-03-02T12:23:23;99222.13;;;18.97;37.26
85918;BME280;76456;49.310;8.632;2024-03-02T12:25:49;99219.50;;;18.91;38.93
85918;BME280;76456;49.310;8.632;2024-03-02T12:28:14;99230.16;;;19.23;37.35
85918;BME280;76456;49.310;8.632;2024-03-02T12:30:40;99197.09;;;18.81;37.03
85918;BME280;76456;49.310;8.632;2024-03-02T12:33:05;99218.88;;;19.23;35.75
85918;BME280;76456;49.310;8.632;2024-03-02T12:35:31;99212.13;;;17.88;39.84
85918;BME280;76456;49.310;8.632;2024-03-02T12:37:56;99217.19;;;19.09;37.05
85918;BME280;76456;49.310;8.632;2024-03-02T12:40:22;99205.38;;;19.54;36.28
85918;BME280;76456;49.310;8.632;2024-03-02T12:42:49;99215.03;;;18.14;38.84
85918;BME280;76456;49.310;8.632;2024-03-02T12:45:15;99176.28;;;18.46;38.30
85918;BME280;76456;49.310;8.632;2024-03-02T12:47:41;99202.94;;;18.34;37.28
85918;BME280;76456;49.310;8.632;2024-03-02T12:50:08;99197.66;;;19.05;37.50
85918;BME280;76456;49.310;8.632;2024-03-02T12:52:33;99177.53;;;16.91;41.30
85918;BME280;76456;49.310;8.632;2024-03-02T12:55:04;99197.09;;;17.90;40.23
85918;BME280;76456;49.310;8.632;2024-03-02T12:57:31;99183.91;;;18.19;38.35
85918;BME280;76456;49.310;8.632;2024-03-02T13:00:06;99186.28;;;18.14;39.55
85918;BME280;76456;49.310;8.632;2024-03-02T13:02:35;99190.13;;;19.30;37.05
85918;BME280;76456;49.310;8.632;2024-03-02T13:05:02;99182.72;;;19.94;36.35
85918;BME280;76456;49.310;8.632;2024-03-02T13:07:27;99178.22;;;18.16;38.21
85918;BME280;76456;49.310;8.632;2024-03-02T13:09:55;99190.41;;;17.87;38.98